Terminal Aerodrome Forecast
Issued by NWS

Home | Current Version | Previous Version | Text Only | Print | Product List | Glossary On
Versions: 1 2 3 4 5 6 7 8 9 10 11 12 13 14
000
FTUS44 KEPZ 242320
TAFTCS
TAF
KTCS 242320Z 2500/2524 10007KT P6SM FEW080 SCT200
     FM250300 36011KT P6SM FEW050 SCT150
     FM250900 02018G28KT P6SM SCT070 SCT150
      TEMPO 2514/2518 03025G35KT
     FM252000 05014G24KT P6SM BKN060 BKN150=

USA.gov is the U.S. government's official web portal to all federal, state and local government web resources and services.